Extreme weather reports worldwide

High winds

Station
 
Location
 
Name
 
Wind
Knots
Gust
Knots
Vis
SM
Temp/Dew
C
Baro
inHg
METAR
 
KMWN 37 49 0 16/16 KMWN 080147Z 28037G49KT 0SM FG VV000 16/16 RMK
CWZZ 36 / 29.54 CWZZ 080135Z AUTO 03036KT ////SM OVC001 ///// A2954
WLG NZWN Wellington, NZ Wellington International Airport 29 39 3.73 8/7 30.03 NZWN 080130Z AUTO 17029G39KT 6000 -RA BKN014/// BKN027/// 08/07 Q1017 BECMG BKN018 TEMPO 4000 RA BKN014
KNSI San Nicolas Island, US San Nicolas Island Nolf Airport 26 34 10 21/13 29.89 KNSI 080053Z AUTO 31026G34KT 10SM CLR 22/13 A2989 RMK AO2 PK WND 31036/0008 SLP117 T02170133 $
CWSR 26 23/12 CWSR 080100Z AUTO 00026KT 24/12 RMK AO1 SLP118 T02350121 56003

Station
 
Location
 
Name
 
Wind
Knots
Gust
Knots
Vis
SM
Temp/Dew
C
Baro
inHg
METAR
 
CWXA 26 28/0 CWXA 080100Z AUTO 00026KT 28/01 RMK AO1 SLP155 T02800005 58008
YCO CYCO Kugluktuk, CA Kugluktuk Airport 26 31 15 12/9 29.70 CYCO 080100Z 36026G31KT 15SM VCSH SCT073 BKN094 12/09 A2970 RMK AC4AC2 SLP062
EUN GMML El Aaiún, EH Hassan I Airport 26 3.73 21/21 29.94 GMML 080100Z 04026KT 6000 SCT011 21/21 Q1014 NOSIG
SKK PFSH Shaktoolik, US Shaktoolik Airport 26 31 10 12/9 29.39 PFSH 080141Z AUTO 22026G31KT 10SM SCT011 OVC019 12/09 A2939 RMK AO2 PK WND 22031/0136 RAE0058B22E37 P0000
KPN PAKI Kipnuk, US Kipnuk Airport 25 30 10 10/ 29.74 PAKI 080056Z AUTO 25025G30KT 10SM OVC007 11/ A2974 RMK AO2 PK WND 24031/0015 SLPNO T0106
PTU PAPM Platinum, US Platinum Airport 25 29 3 11/10 29.90 PAPM 080110Z AUTO 23025G29KT 3SM -RA BR OVC004 11/10 A2990 RMK AO2 PK WND 23029/0110 P0000
OODQ 24 6.21 24/22 29.44 OODQ 080050Z AUTO 21024KT 9999 FEW007 SCT021 OVC210 24/22 Q0997 NOSIG
ENA PAEN Kenai, US Kenai Municipal Airport 24 30 10 11/8 29.93 PAEN 080053Z 19024G30KT 10SM BKN100 12/08 A2993 RMK AO2 PK WND 19033/2356 RAE2355 SLP138 P0000 T01170083
KGK PAJZ Koliganek, US Koliganek Airport 24 30 6 11/10 29.90 PAJZ 080056Z AUTO 22024G30KT 6SM BR OVC009 12/10 A2990 RMK AO2 PK WND 21031/0037 CIG 008V013 SLP133 T01170100 $
UNK PAUN Unalakleet, US Unalakleet Airport 24 29 10 11/10 29.44 PAUN 080056Z AUTO 22024G29KT 10SM FEW008 BKN013 OVC017 12/10 A2944 RMK AO2 PK WND 22030/0037 RAE52 SLP972 T01170100 PNO $
TNC PATC Tin City, US Tin City Long Range Radar Station Airport 24 10 4/3 29.45 PATC 080123Z AUTO 01024KT 10SM -RA BKN005 OVC035 04/03 A2945 RMK AO2 PK WND 01026/0115 SLP974
KALK 24 31 0.5 22/15 30.16 KALK 080148Z AUTO 31024G31KT 1/2SM +RA BKN021 OVC047 22/15 A3016 RMK AO2 PK WND 13035/0132 WSHFT 0133 RAB26 P0056 T02220150
CWRA 23 16/16 CWRA 080100Z AUTO 00023KT 16/16 RMK AO1 SLP121 T01600160 58007
CWXI 23 28 17/17 CWXI 080100Z AUTO 23023G28KT 17/17 RMK AO1 PK WND 22031/0004 SLP990 T01700170 51005
YYT CYYT St. John's, CA St. John's International Airport 23 30 15 19/18 29.83 CYYT 080133Z 26023G30KT 15SM BKN008 19/18 A2983 RMK SF7 SLP101 DENSITY ALT 1200FT
NTR MMAN MX Del Norte International Airport 22 12 34/17 29.98 MMAN 080040Z 11022KT 12SM BKN040 BKN200 34/17 A2998 RMK 8/508
MTY MMMY Monterrey, MX General Mariano Escobedo International Airport 22 32 6 29/18 29.94 MMMY 080040Z 10022G32KT 6SM BKN030CB 29/18 A2994 RMK 8/300 BLDU
OTZ PAOT Kotzebue, US Ralph Wien Memorial Airport 22 28 10 8/6 29.49 PAOT 080053Z 11022G28KT 10SM -RA SCT022 BKN028 OVC044 08/07 A2949 RMK AO2 PK WND 10029/0022 SLP986 P0001 T00830067 $
EDW KEDW Edwards, US Edwards Air Force Base 22 26 10 38/4 29.88 KEDW 080058Z AUTO 25022G26KT 10SM CLR 39/04 A2988 RMK AO2 PK WND 24028/36 SLP091 T03860041
CWDA 22 35 20/ CWDA 080100Z AUTO 28022G35KT 20/ RMK AO1 PK WND 28035/0051 T0203
CWQR 22 12/6 CWQR 080100Z AUTO 29022KT 13/07 RMK AO1 PK WND 30024/0052 T01280068
HTI YBHM Hamilton Island, AU Hamilton Island Airport 22 6.21 20/15 30.06 YBHM 080130Z AUTO 15022KT 9999 // NCD 20/15 Q1018 RF00.0/000.0
KC83 22 10 27/9 29.91 KC83 080135Z AUTO 23022KT 10SM CLR 27/09 A2991 RMK AO2
KMYP 22 27 10 11/5 30.81 KMYP 080135Z AUTO 06022G27KT 10SM SCT065 OVC090 11/05 A3081 RMK AO2
SMK PAMK St Michael, US St Michael Airport 22 27 10 11/8 29.48 PAMK 080148Z AUTO 24022G27KT 10SM BKN016 OVC021 11/08 A2948 RMK AO2 PK WND 24029/0112 RAB03E29 PNO $
YAY CYAY St. Anthony, CA St. Anthony Airport 22 32 9 19/17 29.52 CYAY 080150Z AUTO 23022G32KT 9SM BKN014 BKN036 BKN055 OVC072 19/17 A2952 RMK SLP997 DENSITY ALT 1100FT
LRD KLRD Laredo, US Laredo International Airport 21 26 10 34/21 29.94 KLRD 080056Z 10021G26KT 10SM CLR 34/21 A2994 RMK AO2 PK WND 09026/0056 SLP132 T03440211
SFO KSFO San Francisco, US San Francisco International Airport 21 10 21/12 30.00 KSFO 080056Z 27021KT 10SM CLR 21/12 A3000 RMK AO2 PK WND 26028/0038 SLP158 T02110122 $
TRC MMTC Torreón, MX Francisco Sarabia International Airport 21 1.5 33/12 30.01 MMTC 080056Z 08021KT 1 1/2SM BLDU BKN025CB 33/12 A3001 RMK 8/300 ISOL SC
EDF PAED Anchorage, US Elmendorf Air Force Base 21 26 10 12/6 29.91 PAED 080056Z 19021G26KT 10SM -RA SCT045 BKN065 OVC100 13/07 A2991 RMK AO2A PK WND 20044/12 SLP125 P0000 T01250068 FZRANO $
HPB PAHP Hooper Bay, US Hooper Bay Airport 21 25 10 10/8 29.62 PAHP 080056Z AUTO 26021G25KT 10SM OVC008 11/09 A2962 RMK AO2 CIG 005V011 SLP030 T01060089 PNO $
KNW PANW New Stuyahok, US New Stuyahok Airport 21 29 10 11/11 29.90 PANW 080056Z AUTO 22021G29KT 10SM OVC005 11/11 A2990 RMK AO2 PK WND 21029/0049 SLP130 T01110111
CWKP 21 5/5 29.82 CWKP 080100Z AUTO 27021KT ////SM OVC002 05/05 A2982
VDE GCHI El Hierro Island, ES Hierro Airport 21 6.21 22/19 30.00 GCHI 080130Z AUTO 35021KT 9999 BKN015 22/19 Q1016
LPA GCLP Gran Canaria Island, ES Gran Canaria Airport 21 6.21 22/19 30.00 GCLP 080130Z 01021KT 9999 FEW025 22/19 Q1016 NOSIG
PIP PAPN Pilot Point, US Pilot Point Airport 21 26 2.5 12/11 30.09 PAPN 080149Z AUTO 25021G26KT 2 1/2SM BR OVC006 12/11 A3009 RMK AO2 PK WND 24028/0113
QRO MMQT Querétaro, MX Querétaro Intercontinental Airport 20 8 23/11 30.27 MMQT 080040Z 05020KT 8SM BKN020 BKN250 23/11 A3027 RMK 8/508
BET PABE Bethel, US Bethel Airport 20 28 10 11/10 29.72 PABE 080053Z 22020G28KT 10SM OVC010 12/10 A2972 RMK AO2 PK WND 22030/2357 SLP066 T01170100 $
GKN PAGK Gulkana, US Gulkana Airport 20 32 10 15/5 29.87 PAGK 080053Z AUTO 16020G32KT 10SM SCT060 16/05 A2987 RMK AO2 PK WND 13032/0048 SLP121 T01560050 TSNO $
SGY PAGY Skagway, US Skagway Airport 20 10 16/8 30.05 PAGY 080053Z AUTO 21020KT 10SM OVC065 17/09 A3005 RMK AO2 PK WND 21027/0036 SLP174 T01670089 TSNO
EUX TNCE Sint Eustatius, BQ F. D. Roosevelt Airport 20 27/25 29.97 TNCE 080055Z AUTO 06020KT //// // ///////// 27/25 Q1015 RE//
WAA PAIW Wales, US Wales Airport 20 8 3/3 29.49 PAIW 080056Z AUTO 34020KT 8SM -RA OVC006 04/03 A2949 RMK AO2 SLP988 T00390033 PNO $
SUU KSUU Fairfield, US Travis Air Force Base 20 10 27/12 29.90 KSUU 080058Z AUTO 23020KT 10SM CLR 27/13 A2990 RMK AO2 PK WND 25028/50 SLP131 T02710127 $
CWAR 20 18/18 CWAR 080100Z AUTO 17020KT 18/18 RMK AO1 PK WND 17027/0011 SLP110 T01840184 55005
CWSA 20 28 0.63 20/20 29.99 CWSA 080100Z AUTO 23020G28KT 5/8SM -RA BR VV002 20/20 A2999 RMK SLP157 DENSITY ALT 600FT